Windhoek — 3FWJ3 — position and weather

sailwx.info

Track history (hours):
 
Tides and Currents Weather Stations Pressure Air Temp Water Temp Dewpoint Dewpoint Depression Visibility Wind Speed Wind Dir Waves Ship Positions

Windhoek

Last reported at 2017-May-27 04:00 UTC. Time now 2017-May-27 04:25 UTC.
Position N 39°23' W 009°55'.

Length 172 m; draft 9.1 m.

Type: Ship (hazmat cat C). MMSI: 370431000.

Date/timePositionNaut miles runAvg speedWind from/ knotsBaromVisibWave heightAir tempDewpointWater temp
2017-May-27 04:00N 39°23' W 009°55'1217.6
2017-May-27 03:19N 39°34' W 009°48'514.9
2017-May-27 03:00N 39°38' W 009°45'714.2
2017-May-27 02:30N 39°45' W 009°41'1314.1
2017-May-27 01:34N 39°56' W 009°33'114.1
2017-May-27 01:30N 39°57' W 009°32'1014.1
2017-May-27 00:47N 40°06' W 009°27'414.0
2017-May-27 00:28N 40°10' W 009°25'913.9
2017-May-26 23:50N 40°18' W 009°19'1014.1
2017-May-26 23:09N 40°26' W 009°13'314.1
2017-May-26 22:58N 40°29' W 009°11'44 0.9
2017-May-24 20:58N 41°08' W 008°46'1 0.7
2017-May-24 20:17N 41°08' W 008°46'0 0.0
2017-May-24 19:59N 41°08' W 008°46'0 0.0
2017-May-24 00:59N 41°08' W 008°46'0 0.0
2017-May-24 00:29N 41°08' W 008°46'34 1.4
2017-May-22 23:17N 40°37' W 009°04'4612.4
2017-May-22 19:32N 39°54' W 009°29'112.5
2017-May-22 19:30N 39°54' W 009°29'1912.6
2017-May-22 18:00N 39°37' W 009°40'612.7
2017-May-22 17:30N 39°31' W 009°43'612.5
2017-May-22 17:01N 39°26' W 009°46'612.5
2017-May-22 16:31N 39°20' W 009°50'917.0
2017-May-22 16:00N 39°12' W 009°51'916.9
2017-May-22 15:30N 39°03' W 009°51'613.0
2017-May-22 15:00N 38°57' W 009°51'1212.3
2017-May-22 14:00N 38°44' W 009°50'612.3
2017-May-22 13:30N 38°38' W 009°48'713.2
2017-May-22 13:00N 38°37' W 009°39'713.3
2017-May-22 12:30N 38°36' W 009°31'612.6
2017-May-22 12:00N 38°37' W 009°23'612.2
2017-May-22 11:30N 38°41' W 009°17'5 9.3
2017-May-22 11:00N 38°41' W 009°11'4 7.7
2017-May-22 10:30N 38°43' W 009°07'0 0.4
2017-May-22 09:55N 38°43' W 009°07'0 0.0
2017-May-22 09:28N 38°43' W 009°07'0 0.0
2017-May-22 08:58N 38°43' W 009°07'0 0.0
2017-May-22 08:25N 38°43' W 009°07'0 0.0
2017-May-22 08:01N 38°43' W 009°07'0 0.0
2017-May-22 07:28N 38°43' W 009°07'0 0.0
2017-May-22 06:52N 38°43' W 009°07'0 0.0
2017-May-22 06:28N 38°43' W 009°07'0 0.0
2017-May-22 05:55N 38°43' W 009°07'0 0.0
2017-May-22 05:28N 38°43' W 009°07'0 0.0
2017-May-22 04:58N 38°43' W 009°07'0 0.0
2017-May-22 04:31N 38°43' W 009°07'0 0.0
2017-May-22 04:01N 38°43' W 009°07'0 0.0
2017-May-22 03:28N 38°43' W 009°07'0 0.0
2017-May-22 02:58N 38°43' W 009°07'0 0.0
2017-May-22 02:28N 38°43' W 009°07'0 0.0
2017-May-22 01:58N 38°43' W 009°07'0 0.0
2017-May-22 01:28N 38°43' W 009°07'0 0.0
2017-May-22 00:58N 38°43' W 009°07'0 0.0
2017-May-22 00:31N 38°43' W 009°07'0 0.0
2017-May-21 23:58N 38°43' W 009°07'0 0.0
2017-May-21 23:28N 38°43' W 009°07'0 0.0
2017-May-21 22:58N 38°43' W 009°07'0 0.0
2017-May-21 22:31N 38°43' W 009°07'0 0.0
2017-May-21 21:58N 38°43' W 009°07'0 0.0
2017-May-21 21:28N 38°43' W 009°07'0 0.0
2017-May-21 20:55N 38°43' W 009°07'0 0.0
2017-May-21 20:28N 38°43' W 009°07'0 0.0
2017-May-21 19:55N 38°43' W 009°07'0 0.0
2017-May-21 19:19N 38°43' W 009°07'0 0.0
2017-May-21 18:58N 38°43' W 009°07'0 0.0
2017-May-21 18:28N 38°43' W 009°07'0 0.0
2017-May-21 17:58N 38°43' W 009°07'0 0.0
2017-May-21 17:31N 38°43' W 009°07'0 0.0
2017-May-21 16:58N 38°43' W 009°07'0 0.0
2017-May-21 16:28N 38°43' W 009°07'0 0.0
2017-May-21 15:58N 38°43' W 009°07'0 0.0
2017-May-21 15:28N 38°43' W 009°07'0 0.0
2017-May-21 14:58N 38°43' W 009°07'0 0.0
2017-May-21 14:31N 38°43' W 009°07'0 0.0
2017-May-21 13:28N 38°43' W 009°07'0 0.0
2017-May-21 13:01N 38°43' W 009°07'0 0.0
2017-May-21 12:07N 38°43' W 009°07'0 0.0
2017-May-21 11:55N 38°43' W 009°07'0 0.0
2017-May-21 11:25N 38°43' W 009°07'0 0.0
2017-May-21 10:55N 38°43' W 009°07'0 0.0
2017-May-21 10:25N 38°43' W 009°07'0 0.0
2017-May-21 10:01N 38°43' W 009°07'0 0.0
2017-May-21 09:25N 38°43' W 009°07'0 0.0
2017-May-21 08:58N 38°43' W 009°07'0 0.0
2017-May-21 08:28N 38°43' W 009°07'0 0.0
2017-May-21 07:49N 38°43' W 009°07'0 0.0
2017-May-21 07:28N 38°43' W 009°07'0 0.0
2017-May-21 06:55N 38°43' W 009°07'0 0.0
2017-May-21 06:31N 38°43' W 009°07'0 0.0
2017-May-21 05:58N 38°43' W 009°07'0 0.0
2017-May-21 05:28N 38°43' W 009°07'0 0.0
2017-May-21 04:58N 38°43' W 009°07'0 0.0
2017-May-21 04:31N 38°43' W 009°07'0 0.0
2017-May-21 03:58N 38°43' W 009°07'0 0.0
2017-May-21 03:28N 38°43' W 009°07'0 0.0
2017-May-21 03:01N 38°43' W 009°07'0 0.0
2017-May-21 02:28N 38°43' W 009°07'0 0.0
2017-May-21 01:58N 38°43' W 009°07'0 0.0
2017-May-21 01:28N 38°43' W 009°07'0 0.0
2017-May-21 00:58N 38°43' W 009°07'0 0.0
2017-May-21 00:25N 38°43' W 009°07'0 0.0
2017-May-21 00:01N 38°43' W 009°07'0 0.0
2017-May-20 23:28N 38°43' W 009°07'0 0.0
2017-May-20 22:58N 38°43' W 009°07'0 0.0
2017-May-20 22:28N 38°43' W 009°07'0 0.0
2017-May-20 21:58N 38°43' W 009°07'0 0.0
2017-May-20 21:31N 38°43' W 009°07'0 0.0
2017-May-20 21:01N 38°43' W 009°07'0 0.0
2017-May-20 20:28N 38°43' W 009°07'0 0.0
2017-May-20 20:01N 38°43' W 009°07'0 0.0
2017-May-20 19:25N 38°43' W 009°07'0 0.0
2017-May-20 19:01N 38°43' W 009°07'0 0.0
2017-May-20 18:28N 38°43' W 009°07'0 0.0
2017-May-20 17:58N 38°43' W 009°07'0 0.0
2017-May-20 17:31N 38°43' W 009°07'0 0.0
2017-May-20 16:58N 38°43' W 009°07'0 0.0
2017-May-20 16:25N 38°43' W 009°07'0 0.0
2017-May-20 15:58N 38°43' W 009°07'0 0.0
2017-May-20 15:28N 38°43' W 009°07'0 0.0
2017-May-20 14:58N 38°43' W 009°07'0 0.0
2017-May-20 14:28N 38°43' W 009°07'0 0.0
2017-May-20 13:28N 38°43' W 009°07'0 0.0
2017-May-20 12:52N 38°43' W 009°07'0 0.0
2017-May-20 12:28N 38°43' W 009°07'0 0.0
2017-May-20 11:58N 38°43' W 009°07'0 0.0
2017-May-20 11:28N 38°43' W 009°07'0 0.0
2017-May-20 11:01N 38°43' W 009°07'0 0.0
2017-May-20 10:28N 38°43' W 009°07'0 0.0
2017-May-20 09:58N 38°43' W 009°07'0 0.0
2017-May-20 09:28N 38°43' W 009°07'0 0.0
2017-May-20 08:58N 38°43' W 009°07'0 0.0
2017-May-20 08:28N 38°43' W 009°07'0 0.0
2017-May-20 07:58N 38°43' W 009°07'0 0.0
2017-May-20 07:28N 38°43' W 009°07'0 0.0
2017-May-20 07:01N 38°43' W 009°07'0 0.0
2017-May-20 06:28N 38°43' W 009°07'0 0.0
2017-May-20 05:58N 38°43' W 009°07'0 0.0
2017-May-20 05:25N 38°43' W 009°07'0 0.0
2017-May-20 05:01N 38°43' W 009°07'0 0.0
2017-May-20 04:28N 38°43' W 009°07'0 0.0
2017-May-20 03:58N 38°43' W 009°07'0 0.0
2017-May-20 03:31N 38°43' W 009°07'0 0.0
2017-May-20 02:58N 38°43' W 009°07'0 0.0
2017-May-20 02:28N 38°43' W 009°07'0 0.0
2017-May-20 01:58N 38°43' W 009°07'0 0.0
2017-May-20 01:22N 38°43' W 009°07'0 0.0
2017-May-20 00:58N 38°43' W 009°07'0 0.0
2017-May-20 00:28N 38°43' W 009°07'0 0.0
2017-May-19 23:58N 38°43' W 009°07'0 0.0
2017-May-19 23:28N 38°43' W 009°07'0 0.0
2017-May-19 22:58N 38°43' W 009°07'0 0.0
2017-May-19 22:28N 38°43' W 009°07'0 0.0
2017-May-19 21:58N 38°43' W 009°07'0 0.0
2017-May-19 21:31N 38°43' W 009°07'0 0.0
2017-May-19 20:58N 38°43' W 009°07'0 0.0
2017-May-19 20:28N 38°43' W 009°07'0 0.0
2017-May-19 20:01N 38°43' W 009°07'0 0.0
2017-May-19 19:28N 38°43' W 009°07'0 0.0
2017-May-19 18:58N 38°43' W 009°07'0 0.0
2017-May-19 18:28N 38°43' W 009°07'0 0.0
2017-May-19 18:01N 38°43' W 009°07'0 0.0
2017-May-19 17:31N 38°43' W 009°07'0 0.0
2017-May-19 16:52N 38°43' W 009°07'0 0.0
2017-May-19 16:28N 38°43' W 009°07'0 0.0
2017-May-19 15:58N 38°43' W 009°07'0 0.0
2017-May-19 15:28N 38°43' W 009°07'0 0.0
2017-May-19 14:58N 38°43' W 009°07'0 0.0
2017-May-19 13:58N 38°43' W 009°07'0 0.0
2017-May-19 13:28N 38°43' W 009°07'0 0.0
2017-May-19 12:49N 38°43' W 009°07'0 0.0
2017-May-19 12:28N 38°43' W 009°07'0 0.0
2017-May-19 11:58N 38°43' W 009°07'0 0.0
2017-May-19 11:31N 38°43' W 009°07'0 0.0
2017-May-19 10:58N 38°43' W 009°07'0 0.0
2017-May-19 10:28N 38°43' W 009°07'0 0.0
2017-May-19 09:58N 38°43' W 009°07'0 0.0
2017-May-19 09:28N 38°43' W 009°07'0 0.0
2017-May-19 08:58N 38°43' W 009°07'0 0.0
2017-May-19 08:31N 38°43' W 009°07'0 0.0
2017-May-19 07:58N 38°43' W 009°07'0 0.0
2017-May-19 07:31N 38°43' W 009°07'0 0.0
2017-May-19 06:58N 38°43' W 009°07'0 0.0
2017-May-19 06:31N 38°43' W 009°07'0 0.0
2017-May-19 06:01N 38°43' W 009°07'0 0.0
2017-May-19 05:31N 38°43' W 009°07'0 0.0
2017-May-19 04:58N 38°43' W 009°07'0 0.0
2017-May-19 04:28N 38°43' W 009°07'0 0.0
2017-May-19 04:01N 38°43' W 009°07'0 0.0
2017-May-19 03:31N 38°43' W 009°07'0 0.0
2017-May-19 02:58N 38°43' W 009°07'0 0.0
2017-May-19 02:28N 38°43' W 009°07'0 0.0
2017-May-19 02:01N 38°43' W 009°07'0 0.0
2017-May-19 01:28N 38°43' W 009°07'0 0.0
2017-May-19 00:58N 38°43' W 009°07'0 0.0
2017-May-19 00:28N 38°43' W 009°07'0 0.0
2017-May-19 00:01N 38°43' W 009°07'0 0.0
2017-May-18 23:30N 38°43' W 009°07'0 0.0
2017-May-18 23:00N 38°43' W 009°07'1 1.6
2017-May-18 22:30N 38°42' W 009°08'5 9.2
2017-May-18 22:00N 38°41' W 009°13'4 7.9
2017-May-18 21:30N 38°40' W 009°18'611.7
2017-May-18 21:00N 38°36' W 009°23'510.5
2017-May-18 20:30N 38°31' W 009°24'611.3
2017-May-18 20:00N 38°25' W 009°23'713.5
2017-May-18 19:31N 38°19' W 009°23'713.1
2017-May-18 19:01N 38°12' W 009°23'713.1
2017-May-18 18:31N 38°06' W 009°23'713.2
2017-May-18 18:01N 37°59' W 009°23'713.1
2017-May-18 17:31N 37°52' W 009°22'713.1
2017-May-18 17:01N 37°46' W 009°22'713.4
2017-May-18 16:30N 37°39' W 009°21'713.2
2017-May-18 16:01N 37°33' W 009°21'5412.1
2017-May-18 11:32N 36°41' W 008°60'012.9
2017-May-18 11:30N 36°41' W 008°59'812.7
2017-May-18 10:54N 36°36' W 008°52'1413.2
2017-May-18 09:52N 36°33' W 008°35'12213.2
2017-May-18 00:36N 35°58' W 006°10'213.9
2017-May-18 00:29N 35°58' W 006°08'813.8
2017-May-17 23:56N 35°58' W 005°59'1912.8
2017-May-17 22:28N 35°58' W 005°36'4 0.6
2017-May-17 15:14N 35°54' W 005°33'1 4.5
2017-May-17 15:00N 35°53' W 005°34'1 0.1
2017-May-17 05:25N 35°53' W 005°36'2 3.7
2017-May-17 04:59N 35°55' W 005°36'5 9.5
2017-May-17 04:30N 35°54' W 005°41'  
Track history (hours):
 
Tides and Currents Weather Stations Pressure Air Temp Water Temp Dewpoint Dewpoint Depression Visibility Wind Speed Wind Dir Waves Ship Positions

Windhoek

Last reported at 2017-May-27 04:00 UTC. Time now 2017-May-27 04:25 UTC.
Position N 39°23' W 009°55'.

Length 172 m; draft 9.1 m.

Type: Ship (hazmat cat C). MMSI: 370431000.

Date/timePositionNaut miles runAvg speedWind from/ knotsBaromVisibWave heightAir tempDewpointWater temp
2017-May-27 04:00N 39°23' W 009°55'1217.6
2017-May-27 03:19N 39°34' W 009°48'514.9
2017-May-27 03:00N 39°38' W 009°45'714.2
2017-May-27 02:30N 39°45' W 009°41'1314.1
2017-May-27 01:34N 39°56' W 009°33'114.1
2017-May-27 01:30N 39°57' W 009°32'1014.1
2017-May-27 00:47N 40°06' W 009°27'414.0
2017-May-27 00:28N 40°10' W 009°25'913.9
2017-May-26 23:50N 40°18' W 009°19'1014.1
2017-May-26 23:09N 40°26' W 009°13'314.1
2017-May-26 22:58N 40°29' W 009°11'44 0.9
2017-May-24 20:58N 41°08' W 008°46'1 0.7
2017-May-24 20:17N 41°08' W 008°46'0 0.0
2017-May-24 19:59N 41°08' W 008°46'0 0.0
2017-May-24 00:59N 41°08' W 008°46'0 0.0
2017-May-24 00:29N 41°08' W 008°46'34 1.4
2017-May-22 23:17N 40°37' W 009°04'4612.4
2017-May-22 19:32N 39°54' W 009°29'112.5
2017-May-22 19:30N 39°54' W 009°29'1912.6
2017-May-22 18:00N 39°37' W 009°40'612.7
2017-May-22 17:30N 39°31' W 009°43'612.5
2017-May-22 17:01N 39°26' W 009°46'612.5
2017-May-22 16:31N 39°20' W 009°50'917.0
2017-May-22 16:00N 39°12' W 009°51'916.9
2017-May-22 15:30N 39°03' W 009°51'613.0
2017-May-22 15:00N 38°57' W 009°51'1212.3
2017-May-22 14:00N 38°44' W 009°50'612.3
2017-May-22 13:30N 38°38' W 009°48'713.2
2017-May-22 13:00N 38°37' W 009°39'713.3
2017-May-22 12:30N 38°36' W 009°31'612.6
2017-May-22 12:00N 38°37' W 009°23'612.2
2017-May-22 11:30N 38°41' W 009°17'5 9.3
2017-May-22 11:00N 38°41' W 009°11'4 7.7
2017-May-22 10:30N 38°43' W 009°07'0 0.4
2017-May-22 09:55N 38°43' W 009°07'0 0.0
2017-May-22 09:28N 38°43' W 009°07'0 0.0
2017-May-22 08:58N 38°43' W 009°07'0 0.0
2017-May-22 08:25N 38°43' W 009°07'0 0.0
2017-May-22 08:01N 38°43' W 009°07'0 0.0
2017-May-22 07:28N 38°43' W 009°07'0 0.0
2017-May-22 06:52N 38°43' W 009°07'0 0.0
2017-May-22 06:28N 38°43' W 009°07'0 0.0
2017-May-22 05:55N 38°43' W 009°07'0 0.0
2017-May-22 05:28N 38°43' W 009°07'0 0.0
2017-May-22 04:58N 38°43' W 009°07'0 0.0
2017-May-22 04:31N 38°43' W 009°07'0 0.0
2017-May-22 04:01N 38°43' W 009°07'0 0.0
2017-May-22 03:28N 38°43' W 009°07'0 0.0
2017-May-22 02:58N 38°43' W 009°07'0 0.0
2017-May-22 02:28N 38°43' W 009°07'0 0.0
2017-May-22 01:58N 38°43' W 009°07'0 0.0
2017-May-22 01:28N 38°43' W 009°07'0 0.0
2017-May-22 00:58N 38°43' W 009°07'0 0.0
2017-May-22 00:31N 38°43' W 009°07'0 0.0
2017-May-21 23:58N 38°43' W 009°07'0 0.0
2017-May-21 23:28N 38°43' W 009°07'0 0.0
2017-May-21 22:58N 38°43' W 009°07'0 0.0
2017-May-21 22:31N 38°43' W 009°07'0 0.0
2017-May-21 21:58N 38°43' W 009°07'0 0.0
2017-May-21 21:28N 38°43' W 009°07'0 0.0
2017-May-21 20:55N 38°43' W 009°07'0 0.0
2017-May-21 20:28N 38°43' W 009°07'0 0.0
2017-May-21 19:55N 38°43' W 009°07'0 0.0
2017-May-21 19:19N 38°43' W 009°07'0 0.0
2017-May-21 18:58N 38°43' W 009°07'0 0.0
2017-May-21 18:28N 38°43' W 009°07'0 0.0
2017-May-21 17:58N 38°43' W 009°07'0 0.0
2017-May-21 17:31N 38°43' W 009°07'0 0.0
2017-May-21 16:58N 38°43' W 009°07'0 0.0
2017-May-21 16:28N 38°43' W 009°07'0 0.0
2017-May-21 15:58N 38°43' W 009°07'0 0.0
2017-May-21 15:28N 38°43' W 009°07'0 0.0
2017-May-21 14:58N 38°43' W 009°07'0 0.0
2017-May-21 14:31N 38°43' W 009°07'0 0.0
2017-May-21 13:28N 38°43' W 009°07'0 0.0
2017-May-21 13:01N 38°43' W 009°07'0 0.0
2017-May-21 12:07N 38°43' W 009°07'0 0.0
2017-May-21 11:55N 38°43' W 009°07'0 0.0
2017-May-21 11:25N 38°43' W 009°07'0 0.0
2017-May-21 10:55N 38°43' W 009°07'0 0.0
2017-May-21 10:25N 38°43' W 009°07'0 0.0
2017-May-21 10:01N 38°43' W 009°07'0 0.0
2017-May-21 09:25N 38°43' W 009°07'0 0.0
2017-May-21 08:58N 38°43' W 009°07'0 0.0
2017-May-21 08:28N 38°43' W 009°07'0 0.0
2017-May-21 07:49N 38°43' W 009°07'0 0.0
2017-May-21 07:28N 38°43' W 009°07'0 0.0
2017-May-21 06:55N 38°43' W 009°07'0 0.0
2017-May-21 06:31N 38°43' W 009°07'0 0.0
2017-May-21 05:58N 38°43' W 009°07'0 0.0
2017-May-21 05:28N 38°43' W 009°07'0 0.0
2017-May-21 04:58N 38°43' W 009°07'0 0.0
2017-May-21 04:31N 38°43' W 009°07'0 0.0
2017-May-21 03:58N 38°43' W 009°07'0 0.0
2017-May-21 03:28N 38°43' W 009°07'0 0.0
2017-May-21 03:01N 38°43' W 009°07'0 0.0
2017-May-21 02:28N 38°43' W 009°07'0 0.0
2017-May-21 01:58N 38°43' W 009°07'0 0.0
2017-May-21 01:28N 38°43' W 009°07'0 0.0
2017-May-21 00:58N 38°43' W 009°07'0 0.0
2017-May-21 00:25N 38°43' W 009°07'0 0.0
2017-May-21 00:01N 38°43' W 009°07'0 0.0
2017-May-20 23:28N 38°43' W 009°07'0 0.0
2017-May-20 22:58N 38°43' W 009°07'0 0.0
2017-May-20 22:28N 38°43' W 009°07'0 0.0
2017-May-20 21:58N 38°43' W 009°07'0 0.0
2017-May-20 21:31N 38°43' W 009°07'0 0.0
2017-May-20 21:01N 38°43' W 009°07'0 0.0
2017-May-20 20:28N 38°43' W 009°07'0 0.0
2017-May-20 20:01N 38°43' W 009°07'0 0.0
2017-May-20 19:25N 38°43' W 009°07'0 0.0
2017-May-20 19:01N 38°43' W 009°07'0 0.0
2017-May-20 18:28N 38°43' W 009°07'0 0.0
2017-May-20 17:58N 38°43' W 009°07'0 0.0
2017-May-20 17:31N 38°43' W 009°07'0 0.0
2017-May-20 16:58N 38°43' W 009°07'0 0.0
2017-May-20 16:25N 38°43' W 009°07'0 0.0
2017-May-20 15:58N 38°43' W 009°07'0 0.0
2017-May-20 15:28N 38°43' W 009°07'0 0.0
2017-May-20 14:58N 38°43' W 009°07'0 0.0
2017-May-20 14:28N 38°43' W 009°07'0 0.0
2017-May-20 13:28N 38°43' W 009°07'0 0.0
2017-May-20 12:52N 38°43' W 009°07'0 0.0
2017-May-20 12:28N 38°43' W 009°07'0 0.0
2017-May-20 11:58N 38°43' W 009°07'0 0.0
2017-May-20 11:28N 38°43' W 009°07'0 0.0
2017-May-20 11:01N 38°43' W 009°07'0 0.0
2017-May-20 10:28N 38°43' W 009°07'0 0.0
2017-May-20 09:58N 38°43' W 009°07'0 0.0
2017-May-20 09:28N 38°43' W 009°07'0 0.0
2017-May-20 08:58N 38°43' W 009°07'0 0.0
2017-May-20 08:28N 38°43' W 009°07'0 0.0
2017-May-20 07:58N 38°43' W 009°07'0 0.0
2017-May-20 07:28N 38°43' W 009°07'0 0.0
2017-May-20 07:01N 38°43' W 009°07'0 0.0
2017-May-20 06:28N 38°43' W 009°07'0 0.0
2017-May-20 05:58N 38°43' W 009°07'0 0.0
2017-May-20 05:25N 38°43' W 009°07'0 0.0
2017-May-20 05:01N 38°43' W 009°07'0 0.0
2017-May-20 04:28N 38°43' W 009°07'0 0.0
2017-May-20 03:58N 38°43' W 009°07'0 0.0
2017-May-20 03:31N 38°43' W 009°07'0 0.0
2017-May-20 02:58N 38°43' W 009°07'0 0.0
2017-May-20 02:28N 38°43' W 009°07'0 0.0
2017-May-20 01:58N 38°43' W 009°07'0 0.0
2017-May-20 01:22N 38°43' W 009°07'0 0.0
2017-May-20 00:58N 38°43' W 009°07'0 0.0
2017-May-20 00:28N 38°43' W 009°07'0 0.0
2017-May-19 23:58N 38°43' W 009°07'0 0.0
2017-May-19 23:28N 38°43' W 009°07'0 0.0
2017-May-19 22:58N 38°43' W 009°07'0 0.0
2017-May-19 22:28N 38°43' W 009°07'0 0.0
2017-May-19 21:58N 38°43' W 009°07'0 0.0
2017-May-19 21:31N 38°43' W 009°07'0 0.0
2017-May-19 20:58N 38°43' W 009°07'0 0.0
2017-May-19 20:28N 38°43' W 009°07'0 0.0
2017-May-19 20:01N 38°43' W 009°07'0 0.0
2017-May-19 19:28N 38°43' W 009°07'0 0.0
2017-May-19 18:58N 38°43' W 009°07'0 0.0
2017-May-19 18:28N 38°43' W 009°07'0 0.0
2017-May-19 18:01N 38°43' W 009°07'0 0.0
2017-May-19 17:31N 38°43' W 009°07'0 0.0
2017-May-19 16:52N 38°43' W 009°07'0 0.0
2017-May-19 16:28N 38°43' W 009°07'0 0.0
2017-May-19 15:58N 38°43' W 009°07'0 0.0
2017-May-19 15:28N 38°43' W 009°07'0 0.0
2017-May-19 14:58N 38°43' W 009°07'0 0.0
2017-May-19 13:58N 38°43' W 009°07'0 0.0
2017-May-19 13:28N 38°43' W 009°07'0 0.0
2017-May-19 12:49N 38°43' W 009°07'0 0.0
2017-May-19 12:28N 38°43' W 009°07'0 0.0
2017-May-19 11:58N 38°43' W 009°07'0 0.0
2017-May-19 11:31N 38°43' W 009°07'0 0.0
2017-May-19 10:58N 38°43' W 009°07'0 0.0
2017-May-19 10:28N 38°43' W 009°07'0 0.0
2017-May-19 09:58N 38°43' W 009°07'0 0.0
2017-May-19 09:28N 38°43' W 009°07'0 0.0
2017-May-19 08:58N 38°43' W 009°07'0 0.0
2017-May-19 08:31N 38°43' W 009°07'0 0.0
2017-May-19 07:58N 38°43' W 009°07'0 0.0
2017-May-19 07:31N 38°43' W 009°07'0 0.0
2017-May-19 06:58N 38°43' W 009°07'0 0.0
2017-May-19 06:31N 38°43' W 009°07'0 0.0
2017-May-19 06:01N 38°43' W 009°07'0 0.0
2017-May-19 05:31N 38°43' W 009°07'0 0.0
2017-May-19 04:58N 38°43' W 009°07'0 0.0
2017-May-19 04:28N 38°43' W 009°07'0 0.0
2017-May-19 04:01N 38°43' W 009°07'0 0.0
2017-May-19 03:31N 38°43' W 009°07'0 0.0
2017-May-19 02:58N 38°43' W 009°07'0 0.0
2017-May-19 02:28N 38°43' W 009°07'0 0.0
2017-May-19 02:01N 38°43' W 009°07'0 0.0
2017-May-19 01:28N 38°43' W 009°07'0 0.0
2017-May-19 00:58N 38°43' W 009°07'0 0.0
2017-May-19 00:28N 38°43' W 009°07'0 0.0
2017-May-19 00:01N 38°43' W 009°07'0 0.0
2017-May-18 23:30N 38°43' W 009°07'0 0.0
2017-May-18 23:00N 38°43' W 009°07'1 1.6
2017-May-18 22:30N 38°42' W 009°08'5 9.2
2017-May-18 22:00N 38°41' W 009°13'4 7.9
2017-May-18 21:30N 38°40' W 009°18'611.7
2017-May-18 21:00N 38°36' W 009°23'510.5
2017-May-18 20:30N 38°31' W 009°24'611.3
2017-May-18 20:00N 38°25' W 009°23'713.5
2017-May-18 19:31N 38°19' W 009°23'713.1
2017-May-18 19:01N 38°12' W 009°23'713.1
2017-May-18 18:31N 38°06' W 009°23'713.2
2017-May-18 18:01N 37°59' W 009°23'713.1
2017-May-18 17:31N 37°52' W 009°22'713.1
2017-May-18 17:01N 37°46' W 009°22'713.4
2017-May-18 16:30N 37°39' W 009°21'713.2
2017-May-18 16:01N 37°33' W 009°21'5412.1
2017-May-18 11:32N 36°41' W 008°60'012.9
2017-May-18 11:30N 36°41' W 008°59'812.7
2017-May-18 10:54N 36°36' W 008°52'1413.2
2017-May-18 09:52N 36°33' W 008°35'12213.2
2017-May-18 00:36N 35°58' W 006°10'213.9
2017-May-18 00:29N 35°58' W 006°08'813.8
2017-May-17 23:56N 35°58' W 005°59'1912.8
2017-May-17 22:28N 35°58' W 005°36'4 0.6
2017-May-17 15:14N 35°54' W 005°33'1 4.5
2017-May-17 15:00N 35°53' W 005°34'1 0.1
2017-May-17 05:25N 35°53' W 005°36'2 3.7
2017-May-17 04:59N 35°55' W 005°36'5 9.5
2017-May-17 04:30N 35°54' W 005°41'  

Dump ship's entire track history